createdAt,value
2024-04-08T13:14:07.454Z,31.18
2024-04-08T13:16:40.380Z,30.19
2024-04-08T13:19:11.108Z,30.50
2024-04-08T13:21:40.937Z,30.05
2024-04-08T13:24:11.097Z,29.67
2024-04-08T13:26:43.708Z,30.23
2024-04-08T13:29:13.734Z,29.51
2024-04-08T13:31:45.932Z,29.45
2024-04-08T13:34:13.674Z,29.63
2024-04-08T13:36:43.893Z,28.94
2024-04-08T13:39:13.783Z,29.62
2024-04-08T13:41:43.892Z,29.46
2024-04-08T13:44:13.784Z,29.44
2024-04-08T13:46:45.115Z,29.88
2024-04-08T13:49:12.657Z,29.41
2024-04-08T13:51:42.623Z,29.61
2024-04-08T13:54:11.560Z,29.06
2024-04-08T13:56:41.529Z,29.58
2024-04-08T13:59:08.755Z,29.43
2024-04-08T14:01:41.338Z,29.26
2024-04-08T14:04:09.295Z,29.36
2024-04-08T14:06:39.131Z,29.45
2024-04-08T14:09:06.559Z,29.47
2024-04-08T14:11:36.782Z,29.69
2024-04-08T14:14:04.141Z,29.55
2024-04-08T14:16:34.154Z,29.61
2024-04-08T14:19:07.740Z,28.94
2024-04-08T14:21:38.173Z,28.96
2024-04-08T14:24:06.502Z,28.72
2024-04-08T14:26:36.544Z,28.77
2024-04-08T14:29:04.445Z,28.76
2024-04-08T14:31:34.407Z,28.95
2024-04-08T14:34:04.703Z,29.01
2024-04-08T14:36:37.681Z,28.88
2024-04-08T14:39:22.561Z,28.71
2024-04-08T14:41:57.962Z,28.80
2024-04-08T14:44:32.115Z,28.68
2024-04-08T14:47:08.749Z,28.66
2024-04-08T14:49:36.372Z,28.78
2024-04-08T14:52:11.509Z,28.54
2024-04-08T14:54:40.422Z,28.28
2024-04-08T14:57:10.468Z,28.17
2024-04-08T14:59:40.299Z,28.03
2024-04-08T15:02:12.141Z,28.24
2024-04-08T15:04:39.852Z,28.14
2024-04-08T15:07:19.544Z,27.97
2024-04-08T15:09:55.644Z,28.03
2024-04-08T15:12:23.180Z,27.98
2024-04-08T15:14:53.304Z,27.78
2024-04-08T15:17:22.513Z,27.82
2024-04-08T15:19:53.096Z,27.89
2024-04-08T15:22:22.937Z,27.77
2024-04-08T15:24:55.421Z,27.75
2024-04-08T15:27:22.854Z,27.72
2024-04-08T15:29:54.162Z,27.69
2024-04-08T15:32:22.063Z,27.54
2024-04-08T15:34:52.340Z,27.35
2024-04-08T15:37:20.213Z,27.34
2024-04-08T15:39:55.416Z,27.23
2024-04-08T15:42:22.760Z,27.23
2024-04-08T15:44:53.172Z,27.12
2024-04-08T15:47:21.750Z,27.17
2024-04-08T15:49:51.866Z,27.16
2024-04-08T15:52:19.250Z,27.03
2024-04-08T15:54:49.913Z,27.10
2024-04-08T15:57:19.976Z,27.16
2024-04-08T15:59:51.416Z,27.23
2024-04-08T16:02:18.683Z,27.21
2024-04-08T16:04:51.893Z,27.24
2024-04-08T16:07:19.846Z,27.12
2024-04-08T16:09:50.305Z,26.86
2024-04-08T16:12:20.210Z,26.90
2024-04-08T16:14:50.071Z,26.72
2024-04-08T16:17:17.255Z,26.67
2024-04-08T16:19:51.171Z,26.55
2024-04-08T16:22:20.450Z,26.52
2024-04-08T16:24:54.279Z,26.33
2024-04-08T16:27:26.290Z,26.26
2024-04-08T16:29:56.118Z,26.17
2024-04-08T16:32:24.967Z,26.14
2024-04-08T16:34:54.890Z,26.03
2024-04-08T16:37:22.230Z,26.11
2024-04-08T16:39:52.233Z,25.89
2024-04-08T16:42:19.521Z,25.95
2024-04-08T16:44:52.020Z,25.77
2024-04-08T16:47:19.515Z,25.63
2024-04-08T16:49:49.371Z,25.62
2024-04-08T16:52:16.770Z,25.50
2024-04-08T16:54:46.762Z,25.34
2024-04-08T16:57:14.272Z,25.44
2024-04-08T16:59:44.395Z,25.51
2024-04-08T17:02:14.334Z,25.52
2024-04-08T17:04:44.364Z,25.38
2024-04-08T17:07:11.688Z,25.39
2024-04-08T17:09:41.486Z,25.34
2024-04-08T17:12:09.393Z,25.08
2024-04-08T17:14:42.793Z,25.07
2024-04-08T17:17:09.986Z,24.95
2024-04-08T17:19:44.247Z,24.87
2024-04-08T17:22:11.535Z,24.91
2024-04-08T17:24:41.576Z,24.95
2024-04-08T17:27:09.016Z,24.95
2024-04-08T17:29:38.848Z,24.88
2024-04-08T17:32:07.026Z,24.85
2024-04-08T17:34:36.932Z,24.80
2024-04-08T17:37:06.897Z,24.64
2024-04-08T17:39:39.461Z,24.63
2024-04-08T17:42:06.828Z,24.28
2024-04-08T17:44:36.895Z,24.27
2024-04-08T17:47:06.392Z,24.26
2024-04-08T17:49:36.585Z,23.85
2024-04-08T17:52:06.816Z,23.60
2024-04-08T17:54:36.668Z,23.50
2024-04-08T17:57:07.829Z,23.39
2024-04-08T17:59:37.738Z,23.47
2024-04-08T18:02:05.473Z,23.53
2024-04-08T18:04:37.477Z,23.30
2024-04-08T18:07:07.842Z,23.23
2024-04-08T18:09:37.787Z,23.27
2024-04-08T18:12:05.839Z,23.19
2024-04-08T18:14:35.688Z,23.07
2024-04-08T18:17:03.034Z,22.92
2024-04-08T18:19:34.490Z,22.66
2024-04-08T18:22:01.730Z,22.56
2024-04-08T18:24:38.512Z,22.49
2024-04-08T18:27:07.181Z,22.43
2024-04-08T18:29:38.544Z,22.27
2024-04-08T18:32:06.205Z,21.96
2024-04-08T18:34:39.052Z,21.90
2024-04-08T18:37:06.489Z,21.83
2024-04-08T18:39:39.500Z,21.89
2024-04-08T18:42:07.379Z,21.84
2024-04-08T18:44:37.251Z,21.71
2024-04-08T18:47:05.182Z,21.48
2024-04-08T18:49:37.327Z,21.29
2024-04-08T18:52:06.625Z,21.27
2024-04-08T18:54:44.274Z,21.25
2024-04-08T18:57:11.915Z,20.95
2024-04-08T18:59:42.413Z,20.84
2024-04-08T19:02:09.739Z,20.87
2024-04-08T19:04:40.107Z,20.87
2024-04-08T19:07:07.362Z,20.84
2024-04-08T19:09:40.462Z,20.76
2024-04-08T19:12:08.267Z,20.70
2024-04-08T19:14:40.459Z,20.71
2024-04-08T19:17:13.679Z,20.65
2024-04-08T19:19:43.789Z,20.58
2024-04-08T19:22:12.128Z,20.57
2024-04-08T19:24:45.730Z,20.43
2024-04-08T19:27:18.699Z,20.33
2024-04-08T19:29:49.912Z,20.40
2024-04-08T19:32:17.156Z,20.43
2024-04-08T19:34:51.682Z,20.32
2024-04-08T19:37:19.095Z,20.30
2024-04-08T19:39:53.468Z,20.24
2024-04-08T19:42:21.185Z,20.27
2024-04-08T19:44:56.071Z,20.18
2024-04-08T19:47:26.417Z,20.09
2024-04-08T19:49:58.095Z,20.21
2024-04-08T19:52:29.485Z,20.36
2024-04-08T19:54:59.520Z,20.19
2024-04-08T19:57:29.565Z,19.97
2024-04-08T19:59:57.509Z,20.00
2024-04-08T20:02:27.413Z,19.83
2024-04-08T20:04:59.026Z,19.71
2024-04-08T20:07:29.171Z,19.84
2024-04-08T20:09:59.080Z,19.78
2024-04-08T20:12:29.106Z,19.78
2024-04-08T20:14:58.798Z,19.63
2024-04-08T20:17:28.932Z,19.62
2024-04-08T20:19:56.169Z,19.52
2024-04-08T20:22:25.984Z,19.49
2024-04-08T20:24:53.366Z,19.51
2024-04-08T20:27:25.898Z,19.55
2024-04-08T20:29:53.203Z,19.57
2024-04-08T20:32:22.996Z,19.60
2024-04-08T20:34:50.448Z,19.35
2024-04-08T20:37:20.465Z,19.46
2024-04-08T20:39:50.934Z,19.29
2024-04-08T20:42:21.100Z,19.39
2024-04-08T20:44:51.596Z,19.41
2024-04-08T20:47:21.428Z,19.42
2024-04-08T20:49:52.476Z,19.44
2024-04-08T20:52:22.353Z,19.40
2024-04-08T20:54:52.647Z,19.51
2024-04-08T20:57:22.695Z,19.44
2024-04-08T20:59:52.666Z,19.38
2024-04-08T21:02:22.632Z,19.36
2024-04-08T21:04:51.591Z,19.33
2024-04-08T21:07:21.493Z,19.43
2024-04-08T21:09:48.791Z,19.56
2024-04-08T21:12:18.585Z,19.47
2024-04-08T21:14:45.973Z,19.57
2024-04-08T21:17:18.649Z,19.38
2024-04-08T21:19:45.924Z,19.45
2024-04-08T21:22:15.900Z,19.45
2024-04-08T21:24:43.124Z,19.44
2024-04-08T21:27:14.219Z,19.31
2024-04-08T21:29:41.345Z,19.11
2024-04-08T21:32:11.164Z,19.01
2024-04-08T21:34:41.217Z,19.08
2024-04-08T21:37:11.021Z,18.88
2024-04-08T21:39:38.629Z,18.78
2024-04-08T21:42:11.232Z,18.80
2024-04-08T21:44:38.367Z,18.49
2024-04-08T21:47:08.260Z,18.41
2024-04-08T21:49:35.637Z,18.57
2024-04-08T21:52:08.568Z,18.52
2024-04-08T21:54:35.859Z,18.35
2024-04-08T21:57:06.039Z,18.39
2024-04-08T21:59:33.175Z,18.28
2024-04-08T22:02:05.915Z,18.19
2024-04-08T22:04:33.072Z,18.13
2024-04-08T22:07:02.848Z,18.22
2024-04-08T22:09:32.723Z,18.21
2024-04-08T22:12:02.819Z,18.26
2024-04-08T22:14:29.979Z,18.18
2024-04-08T22:16:59.806Z,18.24
2024-04-08T22:19:26.972Z,18.29
2024-04-08T22:21:56.702Z,18.19
2024-04-08T22:24:23.892Z,18.10
2024-04-08T22:26:56.258Z,17.91
2024-04-08T22:29:25.996Z,17.93
2024-04-08T22:31:55.694Z,17.67
2024-04-08T22:34:23.106Z,17.72
2024-04-08T22:36:52.971Z,17.83
2024-04-08T22:39:20.128Z,17.73
2024-04-08T22:41:53.319Z,17.66
2024-04-08T22:44:23.895Z,17.70
2024-04-08T22:46:54.158Z,17.73
2024-04-08T22:49:23.305Z,17.56
2024-04-08T22:51:53.434Z,17.79
2024-04-08T22:54:20.714Z,17.86
2024-04-08T22:56:50.670Z,17.81
2024-04-08T22:59:18.761Z,17.76
2024-04-08T23:01:53.322Z,17.73
2024-04-08T23:04:21.863Z,17.74
2024-04-08T23:06:51.736Z,17.71
2024-04-08T23:09:19.210Z,17.41
2024-04-08T23:11:49.119Z,17.42
2024-04-08T23:14:18.220Z,17.38
2024-04-08T23:16:48.324Z,17.42
2024-04-08T23:19:18.565Z,17.50
2024-04-08T23:21:48.742Z,17.42
2024-04-08T23:24:16.020Z,17.31
2024-04-08T23:26:46.193Z,16.99
2024-04-08T23:29:13.414Z,17.34
2024-04-08T23:31:44.963Z,17.31
2024-04-08T23:34:12.444Z,17.35
2024-04-08T23:36:45.021Z,17.15
2024-04-08T23:39:12.763Z,17.07
2024-04-08T23:41:43.056Z,16.97
2024-04-08T23:44:10.239Z,17.08
2024-04-08T23:46:40.000Z,17.08
2024-04-08T23:49:09.803Z,17.05
2024-04-08T23:51:39.670Z,17.14
2024-04-08T23:54:09.902Z,17.05
2024-04-08T23:56:39.860Z,16.97
2024-04-08T23:59:09.983Z,16.96
